createdAt,value
2024-02-10T00:00:22.019Z,5.70
2024-02-10T00:05:27.560Z,5.70
2024-02-10T00:10:35.337Z,5.70
2024-02-10T00:15:41.917Z,5.70
2024-02-10T00:20:49.029Z,5.60
2024-02-10T00:25:54.788Z,5.70
2024-02-10T00:31:01.253Z,5.60
2024-02-10T00:36:07.827Z,5.60
2024-02-10T00:41:14.529Z,5.60
2024-02-10T00:46:20.929Z,5.60
2024-02-10T00:51:26.266Z,5.60
2024-02-10T00:56:31.389Z,5.70
2024-02-10T01:01:37.558Z,5.70
2024-02-10T01:06:44.353Z,5.80
2024-02-10T01:11:49.655Z,5.80
2024-02-10T01:16:55.189Z,5.80
2024-02-10T01:22:00.534Z,5.90
2024-02-10T01:27:07.490Z,5.80
2024-02-10T01:32:12.694Z,5.90
2024-02-10T01:37:19.254Z,5.90
2024-02-10T01:42:28.804Z,5.90
2024-02-10T01:47:35.406Z,5.90
2024-02-10T01:52:41.885Z,5.90
2024-02-10T01:57:49.184Z,6.00
2024-02-10T02:02:56.651Z,6.00
2024-02-10T02:08:04.987Z,5.90
2024-02-10T02:13:10.294Z,6.00
2024-02-10T02:18:15.944Z,5.90
2024-02-10T02:23:21.219Z,5.90
2024-02-10T02:28:26.955Z,6.00
2024-02-10T02:33:34.162Z,6.10
2024-02-10T02:38:41.489Z,6.10
2024-02-10T02:43:46.829Z,6.10
2024-02-10T02:48:53.466Z,6.10
2024-02-10T02:53:59.089Z,6.00
2024-02-10T02:59:05.941Z,6.10
2024-02-10T03:04:11.715Z,6.10
2024-02-10T03:09:17.859Z,6.10
2024-02-10T03:14:23.181Z,6.20
2024-02-10T03:19:28.582Z,6.20
2024-02-10T03:24:34.890Z,6.20
2024-02-10T03:29:40.733Z,6.30
2024-02-10T03:34:46.478Z,6.30
2024-02-10T03:39:53.784Z,6.30
2024-02-10T03:44:59.361Z,6.40
2024-02-10T03:50:06.111Z,6.50
2024-02-10T03:55:12.195Z,6.50
2024-02-10T04:00:22.059Z,6.50
2024-02-10T04:05:29.457Z,6.50
2024-02-10T04:10:34.940Z,6.50
2024-02-10T04:15:41.208Z,6.60
2024-02-10T04:20:48.071Z,6.70
2024-02-10T04:25:53.691Z,6.70
2024-02-10T04:30:59.232Z,6.60
2024-02-10T04:36:05.137Z,6.60
2024-02-10T04:41:10.306Z,6.70
2024-02-10T04:46:18.380Z,6.70
2024-02-10T04:51:25.103Z,6.70
2024-02-10T04:56:31.308Z,6.70
2024-02-10T05:06:54.761Z,6.60
2024-02-10T05:12:00.372Z,6.60
2024-02-10T05:17:06.224Z,6.60
2024-02-10T05:22:13.511Z,6.70
2024-02-10T05:27:18.834Z,6.60
2024-02-10T05:32:24.582Z,6.70
2024-02-10T05:37:29.785Z,6.70
2024-02-10T05:42:34.952Z,6.70
2024-02-10T05:47:41.395Z,6.80
2024-02-10T05:52:46.746Z,6.70
2024-02-10T05:57:53.468Z,6.70
2024-02-10T06:02:58.735Z,6.70
2024-02-10T06:08:04.301Z,6.80
2024-02-10T06:13:09.839Z,6.80
2024-02-10T06:18:18.351Z,6.70
2024-02-10T06:23:25.991Z,6.80
2024-02-10T06:28:32.520Z,6.80
2024-02-10T06:33:37.668Z,6.80
2024-02-10T06:38:43.547Z,6.90
2024-02-10T06:43:48.923Z,6.90
2024-02-10T06:48:54.308Z,6.90
2024-02-10T06:53:59.785Z,6.90
2024-02-10T06:59:05.704Z,7.00
2024-02-10T07:04:12.900Z,7.00
2024-02-10T07:09:19.413Z,7.00
2024-02-10T07:14:25.075Z,7.10
2024-02-10T07:19:32.637Z,7.10
2024-02-10T07:24:39.586Z,7.20
2024-02-10T07:29:46.375Z,7.30
2024-02-10T07:34:51.665Z,7.30
2024-02-10T07:39:58.342Z,7.30
2024-02-10T07:45:03.999Z,7.30
2024-02-10T07:50:12.030Z,7.40
2024-02-10T07:55:18.013Z,7.40
2024-02-10T08:00:24.656Z,7.50
2024-02-10T08:05:31.108Z,7.60
2024-02-10T08:10:36.422Z,7.70
2024-02-10T08:15:42.079Z,7.80
2024-02-10T08:20:47.660Z,7.90
2024-02-10T08:25:54.454Z,8.00
2024-02-10T08:31:00.846Z,8.10
2024-02-10T08:36:07.357Z,8.20
2024-02-10T08:41:13.257Z,8.30
2024-02-10T08:46:20.603Z,8.40
2024-02-10T08:51:27.351Z,8.40
2024-02-10T08:56:34.920Z,8.40
2024-02-10T09:01:42.491Z,8.40
2024-02-10T09:06:47.869Z,8.50
2024-02-10T09:11:53.216Z,8.50
2024-02-10T09:17:00.047Z,8.50
2024-02-10T09:22:06.413Z,8.60
2024-02-10T09:27:11.821Z,8.70
2024-02-10T09:32:17.137Z,8.80
2024-02-10T09:37:22.587Z,8.90
2024-02-10T09:42:30.842Z,9.00
2024-02-10T09:47:37.005Z,9.10
2024-02-10T09:52:43.945Z,9.10
2024-02-10T09:57:50.514Z,9.20
2024-02-10T10:02:57.372Z,9.30
2024-02-10T10:08:02.614Z,9.60
2024-02-10T10:13:10.872Z,9.80
2024-02-10T10:18:17.974Z,9.80
2024-02-10T10:23:23.599Z,9.90
2024-02-10T10:28:29.042Z,9.90
2024-02-10T10:33:36.269Z,10.00
2024-02-10T10:38:45.635Z,10.00
2024-02-10T10:43:52.411Z,10.00
2024-02-10T10:48:58.018Z,10.00
2024-02-10T10:54:05.611Z,10.10
2024-02-10T10:59:12.169Z,10.20
2024-02-10T11:04:19.247Z,10.30
2024-02-10T11:09:26.625Z,10.40
2024-02-10T11:14:31.972Z,10.40
2024-02-10T11:19:37.482Z,10.30
2024-02-10T11:24:49.098Z,10.30
2024-02-10T11:29:58.473Z,10.30
2024-02-10T11:35:04.332Z,10.30
2024-02-10T11:40:13.916Z,10.40
2024-02-10T11:45:20.971Z,10.40
2024-02-10T11:50:26.275Z,10.40
2024-02-10T11:55:34.469Z,10.50
2024-02-10T12:00:41.711Z,10.60
2024-02-10T12:05:48.431Z,10.60
2024-02-10T12:10:53.946Z,10.50
2024-02-10T12:16:04.826Z,10.60
2024-02-10T12:21:11.613Z,10.60
2024-02-10T12:26:17.590Z,10.60
2024-02-10T12:31:22.865Z,10.70
2024-02-10T12:36:29.749Z,10.70
2024-02-10T12:41:36.532Z,10.70
2024-02-10T12:46:42.022Z,10.70
2024-02-10T12:51:48.976Z,10.70
2024-02-10T12:56:54.938Z,10.70
2024-02-10T13:02:00.171Z,10.60
2024-02-10T13:07:05.725Z,10.60
2024-02-10T13:12:10.904Z,10.70
2024-02-10T13:17:16.200Z,10.70
2024-02-10T13:22:21.481Z,10.70
2024-02-10T13:27:27.081Z,10.70
2024-02-10T13:32:32.819Z,10.70
2024-02-10T13:37:55.976Z,10.70
2024-02-10T13:43:19.329Z,10.70
2024-02-10T13:48:42.405Z,10.60
2024-02-10T13:54:05.786Z,10.60
2024-02-10T13:59:10.135Z,10.60
2024-02-10T14:04:17.117Z,10.60
2024-02-10T14:09:24.114Z,10.60
2024-02-10T14:14:30.277Z,10.60
2024-02-10T14:19:35.491Z,10.60
2024-02-10T14:24:42.892Z,10.60
2024-02-10T14:29:48.667Z,10.60
2024-02-10T14:35:06.161Z,10.60
2024-02-10T14:40:14.653Z,10.60
2024-02-10T14:45:22.325Z,10.60
2024-02-10T14:50:29.054Z,10.60
2024-02-10T14:55:34.346Z,10.50
2024-02-10T15:00:39.563Z,10.50
2024-02-10T15:05:44.965Z,10.40
2024-02-10T15:10:50.976Z,10.40
2024-02-10T15:15:56.239Z,10.40
2024-02-10T15:21:01.405Z,10.30
2024-02-10T15:26:07.474Z,10.30
2024-02-10T15:31:13.054Z,10.30
2024-02-10T15:36:27.511Z,10.30
2024-02-10T15:41:35.238Z,10.20
2024-02-10T15:46:41.661Z,10.20
2024-02-10T15:51:47.396Z,10.20
2024-02-10T15:56:54.207Z,10.20
2024-02-10T16:01:59.513Z,10.20
2024-02-10T16:07:05.364Z,10.30
2024-02-10T16:12:10.715Z,10.20
2024-02-10T16:17:16.469Z,10.10
2024-02-10T16:22:21.904Z,10.00
2024-02-10T16:27:28.624Z,10.00
2024-02-10T16:32:35.160Z,10.00
2024-02-10T16:37:40.689Z,9.90
2024-02-10T16:42:45.933Z,9.90
2024-02-10T16:47:52.302Z,9.80
2024-02-10T16:53:02.317Z,9.70
2024-02-10T16:58:09.401Z,9.70
2024-02-10T17:03:15.317Z,9.60
2024-02-10T17:08:23.681Z,9.60
2024-02-10T17:13:29.796Z,9.60
2024-02-10T17:18:37.340Z,9.50
2024-02-10T17:23:42.642Z,9.40
2024-02-10T17:28:47.988Z,9.40
2024-02-10T17:33:53.363Z,9.40
2024-02-10T17:39:01.856Z,9.40
2024-02-10T17:44:07.413Z,9.30
2024-02-10T17:49:12.838Z,9.30
2024-02-10T17:54:20.601Z,9.30
2024-02-10T17:59:27.449Z,9.30
2024-02-10T18:04:32.982Z,9.20
2024-02-10T18:09:39.470Z,9.10
2024-02-10T18:14:44.672Z,9.10
2024-02-10T18:19:50.036Z,9.10
2024-02-10T18:24:55.423Z,9.10
2024-02-10T18:30:00.709Z,9.20
2024-02-10T18:35:07.530Z,9.10
2024-02-10T18:40:14.028Z,9.10
2024-02-10T18:45:19.781Z,9.10
2024-02-10T18:50:25.162Z,9.10
2024-02-10T18:55:31.072Z,9.20
2024-02-10T19:00:36.551Z,9.10
2024-02-10T19:05:42.101Z,9.20
2024-02-10T19:10:48.614Z,9.20
2024-02-10T19:15:53.971Z,9.10
2024-02-10T19:21:00.716Z,9.10
2024-02-10T19:26:07.614Z,9.10
2024-02-10T19:31:14.275Z,9.10
2024-02-10T19:36:20.479Z,9.10
2024-02-10T19:41:27.041Z,9.00
2024-02-10T19:46:32.283Z,9.00
2024-02-10T19:51:38.265Z,9.00
2024-02-10T19:56:43.795Z,9.00
2024-02-10T20:01:49.243Z,8.80
2024-02-10T20:06:56.457Z,8.80
2024-02-10T20:12:04.131Z,8.60
2024-02-10T20:17:11.361Z,8.60
2024-02-10T20:22:18.742Z,8.60
2024-02-10T20:27:24.828Z,8.50
2024-02-10T20:32:29.997Z,8.50
2024-02-10T20:37:35.736Z,8.40
2024-02-10T20:42:41.610Z,8.30
2024-02-10T20:47:49.667Z,8.40
2024-02-10T20:52:55.379Z,8.40
2024-02-10T20:58:02.188Z,8.30
2024-02-10T21:03:08.574Z,8.40
2024-02-10T21:08:14.847Z,8.40
2024-02-10T21:13:20.220Z,8.30
2024-02-10T21:18:26.530Z,8.30
2024-02-10T21:23:33.523Z,8.30
2024-02-10T21:28:41.471Z,8.30
2024-02-10T21:33:46.847Z,8.20
2024-02-10T21:38:52.172Z,8.10
2024-02-10T21:43:57.450Z,8.10
2024-02-10T21:49:03.540Z,8.10
2024-02-10T21:54:08.875Z,8.00
2024-02-10T21:59:16.306Z,8.00
2024-02-10T22:04:23.473Z,7.90
2024-02-10T22:09:29.012Z,8.00
2024-02-10T22:14:34.980Z,7.90
2024-02-10T22:19:40.239Z,8.00
2024-02-10T22:24:45.519Z,8.10
2024-02-10T22:29:51.014Z,8.00
2024-02-10T22:34:56.484Z,8.10
2024-02-10T22:40:01.974Z,8.00
2024-02-10T22:45:09.827Z,8.00
2024-02-10T22:50:16.634Z,8.00
2024-02-10T22:55:23.878Z,8.00
2024-02-10T23:00:35.324Z,8.00
2024-02-10T23:05:40.006Z,8.00
2024-02-10T23:10:45.765Z,8.00
2024-02-10T23:15:52.372Z,8.10
2024-02-10T23:20:59.548Z,8.10
2024-02-10T23:26:06.613Z,8.10
2024-02-10T23:31:12.829Z,8.10
2024-02-10T23:36:21.066Z,8.10
2024-02-10T23:41:26.580Z,8.00
2024-02-10T23:46:33.013Z,8.00
2024-02-10T23:51:38.612Z,8.00
2024-02-10T23:56:45.467Z,8.10
